Time;durP1;ratioP1;P1;durP2;ratioP2;P2;SDS_P1;SDS_P2;PMS_P1;PMS_P2;Temp;Humidity;BMP_temperature;BMP_pressure;BME280_temperature;BME280_humidity;BME280_pressure;Samples;Min_cycle;Max_cycle;Signal;HPM_P1;HPM_P2
2023/09/02 00:01:36;;;;;;;0.88;0.88;;;;;;;;;;4996667;28;20080;-79
2023/09/02 00:04:02;;;;;;;0.93;0.77;;;;;;;;;;5017063;28;20053;-78
2023/09/02 00:06:29;;;;;;;0.90;0.90;;;;;;;;;;5023188;28;20033;-78
2023/09/02 00:08:55;;;;;;;0.85;0.85;;;;;;;;;;5016910;28;20437;-78
2023/09/02 00:11:21;;;;;;;1.02;1.02;;;;;;;;;;5006201;28;20018;-77
2023/09/02 00:13:47;;;;;;;0.60;0.60;;;;;;;;;;5021064;28;20022;-78
2023/09/02 00:16:14;;;;;;;0.70;0.70;;;;;;;;;;5027474;28;20034;-78
2023/09/02 00:18:40;;;;;;;1.13;0.90;;;;;;;;;;5037384;28;20029;-77
2023/09/02 00:21:06;;;;;;;1.10;1.10;;;;;;;;;;5018662;28;20156;-78
2023/09/02 00:23:32;;;;;;;0.93;0.90;;;;;;;;;;5006690;28;20388;-78
2023/09/02 00:25:58;;;;;;;0.75;0.75;;;;;;;;;;5016108;28;20018;-79
2023/09/02 00:28:24;;;;;;;1.10;1.00;;;;;;;;;;5016161;28;20022;-78
2023/09/02 00:30:50;;;;;;;0.93;0.90;;;;;;;;;;5016260;28;20065;-78
2023/09/02 00:33:16;;;;;;;0.82;0.82;;;;;;;;;;5015242;28;20026;-79
2023/09/02 00:35:43;;;;;;;0.70;0.70;;;;;;;;;;5015941;28;20030;-78
2023/09/02 00:38:09;;;;;;;0.80;0.80;;;;;;;;;;5016063;28;20022;-79
2023/09/02 00:40:35;;;;;;;0.60;0.60;;;;;;;;;;4998494;28;20030;-79
2023/09/02 00:43:01;;;;;;;0.75;0.75;;;;;;;;;;5000757;28;20022;-78
2023/09/02 00:45:28;;;;;;;0.65;0.65;;;;;;;;;;5016210;28;20022;-77
2023/09/02 00:47:54;;;;;;;0.68;0.68;;;;;;;;;;4998351;28;20515;-78
2023/09/02 00:50:20;;;;;;;0.57;0.57;;;;;;;;;;5015835;28;20087;-78
2023/09/02 00:52:47;;;;;;;0.55;0.55;;;;;;;;;;5015007;28;20274;-79
2023/09/02 00:55:14;;;;;;;0.68;0.68;;;;;;;;;;5016622;28;20214;-77
2023/09/02 00:57:41;;;;;;;0.57;0.57;;;;;;;;;;5016237;28;20469;-77
2023/09/02 01:00:08;;;;;;;0.55;0.55;;;;;;;;;;4998058;28;20085;-78
2023/09/02 01:02:34;;;;;;;0.60;0.60;;;;;;;;;;4978343;28;20089;-78
2023/09/02 01:05:01;;;;;;;0.60;0.60;;;;;;;;;;5015700;28;20026;-78
2023/09/02 01:07:27;;;;;;;0.70;0.70;;;;;;;;;;5018867;28;20056;-80
2023/09/02 01:09:53;;;;;;;0.60;0.60;;;;;;;;;;5017227;28;20026;-78
2023/09/02 01:12:19;;;;;;;0.60;0.60;;;;;;;;;;5014039;28;20034;-77
2023/09/02 01:14:45;;;;;;;0.60;0.60;;;;;;;;;;5001062;28;20038;-78
2023/09/02 01:17:11;;;;;;;0.95;0.90;;;;;;;;;;4996524;28;20073;-77
2023/09/02 01:19:38;;;;;;;0.70;0.70;;;;;;;;;;5001017;28;20073;-78
2023/09/02 01:22:16;;;;;;;0.60;0.60;;;;;;;;;;4987018;28;20027;-78
2023/09/02 01:25:01;;;;;;;0.55;0.55;;;;;;;;;;5018475;28;20033;-78
2023/09/02 01:28:02;;;;;;;0.47;0.45;;;;;;;;;;5016882;28;20033;-78
2023/09/02 01:30:32;;;;;;;0.77;0.77;;;;;;;;;;4954929;29;20027;-78
2023/09/02 01:32:58;;;;;;;0.60;0.60;;;;;;;;;;5004894;28;20045;-78
2023/09/02 01:35:27;;;;;;;0.50;0.50;;;;;;;;;;5016457;28;20030;-79
2023/09/02 01:37:55;;;;;;;0.80;0.80;;;;;;;;;;5022538;28;20030;-78
2023/09/02 01:40:22;;;;;;;0.80;0.80;;;;;;;;;;5015096;28;20061;-78
2023/09/02 01:42:51;;;;;;;0.60;0.60;;;;;;;;;;5014100;28;20054;-78
2023/09/02 01:45:20;;;;;;;0.50;0.50;;;;;;;;;;5014775;28;20432;-78
2023/09/02 01:47:47;;;;;;;0.68;0.68;;;;;;;;;;5014575;28;20022;-78
2023/09/02 01:50:15;;;;;;;0.70;0.70;;;;;;;;;;5014994;28;20033;-78
2023/09/02 01:52:41;;;;;;;0.60;0.60;;;;;;;;;;5013381;28;20041;-79
2023/09/02 01:55:08;;;;;;;0.70;0.70;;;;;;;;;;5014686;28;20022;-78
2023/09/02 01:57:34;;;;;;;0.52;0.52;;;;;;;;;;5014101;28;20030;-78
2023/09/02 02:00:00;;;;;;;0.50;0.50;;;;;;;;;;4997399;28;20031;-76
2023/09/02 02:02:26;;;;;;;0.40;0.40;;;;;;;;;;5015141;28;20053;-77
2023/09/02 02:04:58;;;;;;;0.65;0.65;;;;;;;;;;5013994;28;20060;-77
2023/09/02 02:07:27;;;;;;;0.50;0.50;;;;;;;;;;5014365;28;20030;-77
2023/09/02 02:09:57;;;;;;;0.70;0.70;;;;;;;;;;5014474;28;20029;-78
2023/09/02 02:12:23;;;;;;;0.57;0.57;;;;;;;;;;4994974;28;20381;-78
2023/09/02 02:14:49;;;;;;;0.70;0.70;;;;;;;;;;5021071;28;20018;-78
2023/09/02 02:17:15;;;;;;;0.65;0.65;;;;;;;;;;5013782;28;20072;-77
2023/09/02 02:19:42;;;;;;;0.80;0.80;;;;;;;;;;4996216;28;20028;-78
2023/09/02 02:22:08;;;;;;;1.23;1.13;;;;;;;;;;4996795;28;20026;-78
2023/09/02 02:24:34;;;;;;;1.30;1.20;;;;;;;;;;5022514;28;20029;-78
2023/09/02 02:27:00;;;;;;;1.33;1.23;;;;;;;;;;5018780;28;20025;-79
2023/09/02 02:29:26;;;;;;;0.90;0.90;;;;;;;;;;5006167;28;20022;-78
2023/09/02 02:31:52;;;;;;;1.25;1.13;;;;;;;;;;4982167;28;20033;-77
2023/09/02 02:34:19;;;;;;;1.05;1.05;;;;;;;;;;5012370;28;20069;-79
2023/09/02 02:36:45;;;;;;;0.90;0.90;;;;;;;;;;5016128;28;20018;-78
2023/09/02 02:39:11;;;;;;;0.85;0.85;;;;;;;;;;5015789;28;20029;-78
2023/09/02 02:41:37;;;;;;;1.10;1.00;;;;;;;;;;5015790;28;20155;-78
2023/09/02 02:44:03;;;;;;;0.82;0.82;;;;;;;;;;4998474;28;20033;-79
2023/09/02 02:46:30;;;;;;;0.90;0.90;;;;;;;;;;5017393;28;20021;-79
2023/09/02 02:48:56;;;;;;;0.80;0.80;;;;;;;;;;5022135;28;20018;-78
2023/09/02 02:51:22;;;;;;;0.77;0.77;;;;;;;;;;5026828;28;20485;-78
2023/09/02 02:53:48;;;;;;;0.85;0.85;;;;;;;;;;5015688;28;20475;-78
2023/09/02 02:56:14;;;;;;;1.05;1.05;;;;;;;;;;4997784;28;20157;-78
2023/09/02 02:58:40;;;;;;;0.90;0.90;;;;;;;;;;4998277;28;20022;-78
2023/09/02 03:01:08;;;;;;;1.00;1.00;;;;;;;;;;5022683;28;20472;-78
2023/09/02 03:03:35;;;;;;;0.98;0.95;;;;;;;;;;4997446;28;20030;-79
2023/09/02 03:06:02;;;;;;;0.80;0.77;;;;;;;;;;5014835;28;20484;-78
2023/09/02 03:08:28;;;;;;;0.70;0.70;;;;;;;;;;5013728;28;20043;-78
2023/09/02 03:11:01;;;;;;;0.80;0.80;;;;;;;;;;4994948;28;20025;-78
2023/09/02 03:13:30;;;;;;;0.50;0.50;;;;;;;;;;4995646;28;20077;-78
2023/09/02 03:15:57;;;;;;;0.50;0.50;;;;;;;;;;5012980;28;20033;-78
2023/09/02 03:18:24;;;;;;;0.68;0.68;;;;;;;;;;4998171;28;20029;-79
2023/09/02 03:20:50;;;;;;;0.68;0.68;;;;;;;;;;5013301;28;20048;-79
2023/09/02 03:23:16;;;;;;;0.60;0.60;;;;;;;;;;5012246;28;20029;-79
2023/09/02 03:25:42;;;;;;;0.80;0.80;;;;;;;;;;5016635;28;20047;-78
2023/09/02 03:28:09;;;;;;;1.15;0.90;;;;;;;;;;5017232;28;20044;-78
2023/09/02 03:30:35;;;;;;;0.70;0.70;;;;;;;;;;4994210;28;20580;-78
2023/09/02 03:33:01;;;;;;;0.77;0.77;;;;;;;;;;5012235;28;20026;-77
2023/09/02 03:35:27;;;;;;;0.80;0.80;;;;;;;;;;5012553;28;20503;-77
2023/09/02 03:37:53;;;;;;;1.23;1.13;;;;;;;;;;5012305;28;20381;-77
2023/09/02 03:40:19;;;;;;;0.50;0.50;;;;;;;;;;4994254;28;20122;-78
2023/09/02 03:42:45;;;;;;;0.73;0.73;;;;;;;;;;5012146;28;20030;-77
2023/09/02 03:45:11;;;;;;;0.73;0.60;;;;;;;;;;5011918;28;20056;-79
2023/09/02 03:47:37;;;;;;;0.70;0.70;;;;;;;;;;5010913;28;20362;-77
2023/09/02 03:50:07;;;;;;;0.60;0.60;;;;;;;;;;5012995;28;20081;-77
2023/09/02 03:52:33;;;;;;;0.85;0.85;;;;;;;;;;5012692;28;20028;-79
2023/09/02 03:54:59;;;;;;;0.98;0.98;;;;;;;;;;5012681;28;20021;-77
2023/09/02 03:57:25;;;;;;;0.73;0.73;;;;;;;;;;5007999;28;20022;-78
2023/09/02 03:59:51;;;;;;;0.90;0.90;;;;;;;;;;5001423;28;20018;-79
2023/09/02 04:02:17;;;;;;;1.00;0.80;;;;;;;;;;5013108;28;20498;-78
2023/09/02 04:04:44;;;;;;;0.93;0.88;;;;;;;;;;5031824;28;20034;-78
2023/09/02 04:07:10;;;;;;;0.80;0.80;;;;;;;;;;5007808;28;20030;-78
2023/09/02 04:09:36;;;;;;;0.80;0.80;;;;;;;;;;5018041;28;20065;-80
2023/09/02 04:12:03;;;;;;;0.90;0.90;;;;;;;;;;4997711;28;20038;-79
2023/09/02 04:14:29;;;;;;;0.65;0.65;;;;;;;;;;5000242;28;20018;-79
2023/09/02 04:16:55;;;;;;;0.68;0.68;;;;;;;;;;5017885;28;20030;-78
2023/09/02 04:19:22;;;;;;;0.90;0.90;;;;;;;;;;4994318;28;20018;-77
2023/09/02 04:21:49;;;;;;;0.70;0.70;;;;;;;;;;5019876;28;20022;-78
2023/09/02 04:24:15;;;;;;;0.70;0.70;;;;;;;;;;5014570;28;20026;-78
2023/09/02 04:26:41;;;;;;;0.57;0.57;;;;;;;;;;5012621;28;20386;-77
2023/09/02 04:29:07;;;;;;;0.70;0.70;;;;;;;;;;5012187;28;20240;-77
2023/09/02 04:31:33;;;;;;;0.77;0.77;;;;;;;;;;4996391;28;20030;-78
2023/09/02 04:33:59;;;;;;;0.60;0.60;;;;;;;;;;4975375;28;20062;-77
2023/09/02 04:36:25;;;;;;;0.70;0.70;;;;;;;;;;4993143;28;20030;-77
2023/09/02 04:38:52;;;;;;;0.63;0.63;;;;;;;;;;4993211;28;20065;-78
2023/09/02 04:41:18;;;;;;;0.70;0.70;;;;;;;;;;4992322;28;20030;-78
2023/09/02 04:43:44;;;;;;;0.60;0.60;;;;;;;;;;4992426;28;20031;-78
2023/09/02 04:46:10;;;;;;;0.50;0.50;;;;;;;;;;4986907;28;20029;-78
2023/09/02 04:48:36;;;;;;;0.63;0.63;;;;;;;;;;5011946;28;20109;-78
2023/09/02 04:51:07;;;;;;;0.60;0.55;;;;;;;;;;5011887;28;20026;-78
2023/09/02 04:53:33;;;;;;;0.55;0.55;;;;;;;;;;5014949;28;20061;-78
2023/09/02 04:56:00;;;;;;;0.50;0.50;;;;;;;;;;5015405;28;20018;-78
2023/09/02 04:58:27;;;;;;;0.50;0.50;;;;;;;;;;5015482;28;20044;-78
2023/09/02 05:00:53;;;;;;;0.55;0.55;;;;;;;;;;5015265;28;20088;-78
2023/09/02 05:03:19;;;;;;;0.60;0.60;;;;;;;;;;5013248;28;20084;-78
2023/09/02 05:05:45;;;;;;;1.10;0.70;;;;;;;;;;5015218;28;20396;-78
2023/09/02 05:08:11;;;;;;;0.65;0.65;;;;;;;;;;5015091;28;20034;-79
2023/09/02 05:10:37;;;;;;;0.63;0.63;;;;;;;;;;5015998;28;20061;-78
2023/09/02 05:13:04;;;;;;;0.70;0.70;;;;;;;;;;4998341;28;20026;-77
2023/09/02 05:15:30;;;;;;;0.50;0.50;;;;;;;;;;5021251;28;20049;-77
2023/09/02 05:17:58;;;;;;;0.60;0.60;;;;;;;;;;4997369;28;20022;-78
2023/09/02 05:20:24;;;;;;;0.50;0.50;;;;;;;;;;4999619;28;20054;-78
2023/09/02 05:22:50;;;;;;;0.40;0.40;;;;;;;;;;5016301;28;20021;-79
2023/09/02 05:25:16;;;;;;;0.43;0.43;;;;;;;;;;5018314;28;20443;-78
2023/09/02 05:27:42;;;;;;;1.05;0.95;;;;;;;;;;4998566;28;20425;-78
2023/09/02 05:30:09;;;;;;;0.85;0.85;;;;;;;;;;4997357;28;20076;-79
2023/09/02 05:32:35;;;;;;;0.60;0.60;;;;;;;;;;4996528;28;20031;-78
2023/09/02 05:35:01;;;;;;;0.70;0.70;;;;;;;;;;5001224;28;20010;-77
2023/09/02 05:37:27;;;;;;;0.98;0.98;;;;;;;;;;5014594;28;20374;-78
2023/09/02 05:39:53;;;;;;;0.77;0.77;;;;;;;;;;5015357;28;20021;-78
2023/09/02 05:42:19;;;;;;;0.65;0.65;;;;;;;;;;5026210;28;20026;-78
2023/09/02 05:44:46;;;;;;;1.05;1.02;;;;;;;;;;5034513;28;20061;-78
2023/09/02 05:47:12;;;;;;;0.80;0.80;;;;;;;;;;5034932;28;20025;-78
2023/09/02 05:49:38;;;;;;;0.88;0.88;;;;;;;;;;5016834;28;20036;-77
2023/09/02 05:52:05;;;;;;;1.25;0.98;;;;;;;;;;5002049;28;20026;-78
2023/09/02 05:54:31;;;;;;;1.40;1.30;;;;;;;;;;5013596;28;20018;-78
2023/09/02 05:56:57;;;;;;;1.15;1.00;;;;;;;;;;5014623;28;20042;-78
2023/09/02 05:59:23;;;;;;;1.10;1.10;;;;;;;;;;5016018;28;20037;-78
2023/09/02 06:01:50;;;;;;;1.15;1.05;;;;;;;;;;5014580;28;20022;-78
2023/09/02 06:04:16;;;;;;;1.15;1.05;;;;;;;;;;5013110;28;20029;-77
2023/09/02 06:06:45;;;;;;;1.00;1.00;;;;;;;;;;5013789;28;20125;-78
2023/09/02 06:09:11;;;;;;;1.30;1.02;;;;;;;;;;4999076;28;20038;-78
2023/09/02 06:11:38;;;;;;;1.05;0.88;;;;;;;;;;4994370;28;20084;-78
2023/09/02 06:14:04;;;;;;;1.08;1.08;;;;;;;;;;4995128;28;20390;-78
2023/09/02 06:16:30;;;;;;;0.70;0.70;;;;;;;;;;4996839;28;20048;-77
2023/09/02 06:18:56;;;;;;;0.88;0.88;;;;;;;;;;5010044;28;20019;-76
2023/09/02 06:21:22;;;;;;;0.80;0.80;;;;;;;;;;4995605;28;20045;-77
2023/09/02 06:23:49;;;;;;;0.80;0.80;;;;;;;;;;5004769;28;20033;-78
2023/09/02 06:26:16;;;;;;;1.10;1.10;;;;;;;;;;5006757;28;20033;-76
2023/09/02 06:28:42;;;;;;;1.30;1.10;;;;;;;;;;4983130;28;20021;-78
2023/09/02 06:31:09;;;;;;;0.90;0.90;;;;;;;;;;4998149;28;20040;-77
2023/09/02 06:33:35;;;;;;;0.93;0.93;;;;;;;;;;4997331;28;20484;-78
2023/09/02 06:36:08;;;;;;;0.90;0.90;;;;;;;;;;5020528;28;20020;-77
2023/09/02 06:38:34;;;;;;;0.85;0.85;;;;;;;;;;5032645;28;20025;-78
2023/09/02 06:41:00;;;;;;;0.85;0.85;;;;;;;;;;5024058;28;20010;-78
2023/09/02 06:43:26;;;;;;;0.80;0.80;;;;;;;;;;5014538;28;20038;-78
2023/09/02 06:45:53;;;;;;;0.57;0.57;;;;;;;;;;4996944;28;20037;-78
2023/09/02 06:48:19;;;;;;;2.00;0.80;;;;;;;;;;5014654;28;20018;-78
2023/09/02 06:50:46;;;;;;;0.80;0.80;;;;;;;;;;4998401;28;20057;-78
2023/09/02 06:53:12;;;;;;;1.20;1.02;;;;;;;;;;5019048;28;20515;-78
2023/09/02 06:55:38;;;;;;;0.85;0.85;;;;;;;;;;5022846;28;20524;-78
2023/09/02 06:58:04;;;;;;;1.17;1.13;;;;;;;;;;4996453;28;20030;-78
2023/09/02 07:00:30;;;;;;;0.80;0.80;;;;;;;;;;5016718;28;20029;-78
2023/09/02 07:02:57;;;;;;;0.95;0.95;;;;;;;;;;5015666;28;20398;-77
2023/09/02 07:05:23;;;;;;;0.80;0.80;;;;;;;;;;5014833;28;20022;-78
2023/09/02 07:07:49;;;;;;;0.98;0.80;;;;;;;;;;5014779;28;20027;-79
2023/09/02 07:10:15;;;;;;;0.80;0.80;;;;;;;;;;5020022;28;20030;-78
2023/09/02 07:12:41;;;;;;;1.10;1.10;;;;;;;;;;5029356;28;20033;-77
2023/09/02 07:15:08;;;;;;;1.08;0.95;;;;;;;;;;5002813;28;20026;-76
2023/09/02 07:17:34;;;;;;;0.70;0.70;;;;;;;;;;4984831;28;20427;-77
2023/09/02 07:20:00;;;;;;;0.82;0.82;;;;;;;;;;4995128;28;20026;-78
2023/09/02 07:22:26;;;;;;;0.88;0.85;;;;;;;;;;4994680;28;20065;-78
2023/09/02 07:24:52;;;;;;;0.98;0.98;;;;;;;;;;5013858;28;20030;-77
2023/09/02 07:27:18;;;;;;;0.70;0.70;;;;;;;;;;5014338;28;20029;-77
2023/09/02 07:29:44;;;;;;;1.10;1.05;;;;;;;;;;4996167;28;20030;-78
2023/09/02 07:32:10;;;;;;;0.90;0.90;;;;;;;;;;5013763;28;20539;-77
2023/09/02 07:34:37;;;;;;;0.98;0.98;;;;;;;;;;5014439;28;20287;-78
2023/09/02 07:37:03;;;;;;;0.93;0.93;;;;;;;;;;5014811;28;20025;-78
2023/09/02 07:39:29;;;;;;;0.80;0.80;;;;;;;;;;5014577;28;20507;-78
2023/09/02 07:41:55;;;;;;;1.35;1.02;;;;;;;;;;5014014;28;20049;-78
2023/09/02 07:44:21;;;;;;;1.00;1.00;;;;;;;;;;5014074;28;20026;-78
2023/09/02 07:46:48;;;;;;;0.88;0.75;;;;;;;;;;5000190;28;20504;-78
2023/09/02 07:49:14;;;;;;;1.02;0.95;;;;;;;;;;4994171;28;20037;-78
2023/09/02 07:51:40;;;;;;;1.08;1.08;;;;;;;;;;4976798;28;20050;-77
2023/09/02 07:54:06;;;;;;;0.85;0.85;;;;;;;;;;5006918;28;20030;-77
2023/09/02 07:56:32;;;;;;;1.58;1.30;;;;;;;;;;5023258;28;20333;-77
2023/09/02 07:58:58;;;;;;;1.30;1.20;;;;;;;;;;5034004;28;20468;-79
2023/09/02 08:01:25;;;;;;;1.05;1.05;;;;;;;;;;5033234;28;20104;-77
2023/09/02 08:03:51;;;;;;;1.15;0.98;;;;;;;;;;5015899;28;20077;-78
2023/09/02 08:06:17;;;;;;;1.20;1.10;;;;;;;;;;5013610;28;20030;-77
2023/09/02 08:08:43;;;;;;;1.27;1.17;;;;;;;;;;5014926;28;20083;-78
2023/09/02 08:11:11;;;;;;;1.30;1.20;;;;;;;;;;5014261;28;20058;-78
2023/09/02 08:13:37;;;;;;;1.50;1.05;;;;;;;;;;5013426;28;20104;-78
2023/09/02 08:16:05;;;;;;;1.25;1.25;;;;;;;;;;4995685;28;20301;-77
2023/09/02 08:18:31;;;;;;;1.45;1.35;;;;;;;;;;5009963;28;20018;-78
2023/09/02 08:20:57;;;;;;;1.30;1.20;;;;;;;;;;4993741;28;20030;-76
2023/09/02 08:23:23;;;;;;;1.30;1.30;;;;;;;;;;5000436;28;20037;-78
2023/09/02 08:25:49;;;;;;;0.93;0.93;;;;;;;;;;5013340;28;20018;-77
2023/09/02 08:28:15;;;;;;;1.17;1.08;;;;;;;;;;4998904;28;20029;-79
2023/09/02 08:30:41;;;;;;;1.23;1.17;;;;;;;;;;5017763;28;20497;-78
2023/09/02 08:33:07;;;;;;;0.88;0.88;;;;;;;;;;5003743;28;20026;-78
2023/09/02 08:35:37;;;;;;;1.15;1.08;;;;;;;;;;4999382;28;20037;-77
2023/09/02 08:38:06;;;;;;;0.90;0.90;;;;;;;;;;5019554;28;20428;-78
2023/09/02 08:40:32;;;;;;;1.05;0.90;;;;;;;;;;5007787;28;20029;-79
2023/09/02 08:43:02;;;;;;;0.90;0.90;;;;;;;;;;5019759;28;20014;-78
2023/09/02 08:45:29;;;;;;;0.90;0.90;;;;;;;;;;5037340;28;20041;-79
2023/09/02 08:47:59;;;;;;;1.10;1.10;;;;;;;;;;5036947;28;20094;-79
2023/09/02 08:50:28;;;;;;;1.25;1.20;;;;;;;;;;5037513;28;20076;-78
2023/09/02 08:52:55;;;;;;;1.00;1.00;;;;;;;;;;5006101;28;20034;-79
2023/09/02 08:55:22;;;;;;;1.40;1.30;;;;;;;;;;5041952;28;20040;-78
2023/09/02 08:57:48;;;;;;;1.17;1.05;;;;;;;;;;5023093;28;20394;-77
2023/09/02 09:00:14;;;;;;;1.85;1.63;;;;;;;;;;5017494;28;20048;-76
2023/09/02 09:02:41;;;;;;;1.20;1.10;;;;;;;;;;5017515;28;20041;-77
2023/09/02 09:05:08;;;;;;;1.50;1.40;;;;;;;;;;5016714;28;20420;-76
2023/09/02 09:07:34;;;;;;;1.08;1.08;;;;;;;;;;5016574;28;20105;-77
2023/09/02 09:10:01;;;;;;;1.35;1.35;;;;;;;;;;5016961;28;20060;-78
2023/09/02 09:12:29;;;;;;;1.50;1.40;;;;;;;;;;5016364;28;20056;-76
2023/09/02 09:14:59;;;;;;;3.08;2.08;;;;;;;;;;5016937;28;20018;-78
2023/09/02 09:17:25;;;;;;;1.70;1.60;;;;;;;;;;5016428;28;20041;-77
2023/09/02 09:19:53;;;;;;;1.70;1.60;;;;;;;;;;4999107;28;20385;-78
2023/09/02 09:22:19;;;;;;;1.85;1.70;;;;;;;;;;4998911;28;20073;-78
2023/09/02 09:24:45;;;;;;;1.77;1.67;;;;;;;;;;5010788;28;20084;-78
2023/09/02 09:27:11;;;;;;;1.70;1.60;;;;;;;;;;5016030;28;20022;-77
2023/09/02 09:29:41;;;;;;;2.03;1.63;;;;;;;;;;5015759;28;20058;-77
2023/09/02 09:32:12;;;;;;;3.83;1.65;;;;;;;;;;5015875;28;20029;-77
2023/09/02 09:34:39;;;;;;;2.60;2.20;;;;;;;;;;5016203;28;20434;-78
2023/09/02 09:37:06;;;;;;;1.70;1.60;;;;;;;;;;5015563;28;20025;-77
2023/09/02 09:39:46;;;;;;;1.40;1.30;;;;;;;;;;5015649;28;20026;-78
2023/09/02 09:42:13;;;;;;;1.65;1.55;;;;;;;;;;5015235;28;20036;-78
2023/09/02 09:45:00;;;;;;;2.05;1.70;;;;;;;;;;4998446;28;20033;-78
2023/09/02 09:47:26;;;;;;;1.40;1.30;;;;;;;;;;5017302;28;20029;-78
2023/09/02 09:49:53;;;;;;;1.65;1.55;;;;;;;;;;4998514;28;20018;-79
2023/09/02 09:52:20;;;;;;;1.50;1.40;;;;;;;;;;5016259;28;20470;-78
2023/09/02 09:54:50;;;;;;;1.52;1.42;;;;;;;;;;5015589;28;20790;-78
2023/09/02 09:57:32;;;;;;;1.42;1.33;;;;;;;;;;5013481;28;20431;-78
2023/09/02 09:59:58;;;;;;;1.48;1.35;;;;;;;;;;4979504;28;20026;-78
2023/09/02 10:02:24;;;;;;;1.50;1.40;;;;;;;;;;4996594;28;20030;-77
2023/09/02 10:04:52;;;;;;;1.52;1.42;;;;;;;;;;5000105;28;20026;-79
2023/09/02 10:07:22;;;;;;;1.58;1.48;;;;;;;;;;4999956;28;20393;-78
2023/09/02 10:09:48;;;;;;;2.35;2.15;;;;;;;;;;4997227;28;20022;-78
2023/09/02 10:12:16;;;;;;;2.25;2.05;;;;;;;;;;4996710;28;20101;-78
2023/09/02 10:14:51;;;;;;;1.92;1.83;;;;;;;;;;5007400;28;20054;-77
2023/09/02 10:17:18;;;;;;;3.05;2.20;;;;;;;;;;5015006;28;20022;-78
2023/09/02 10:19:45;;;;;;;2.47;1.90;;;;;;;;;;5020038;28;20077;-78
2023/09/02 10:22:19;;;;;;;2.50;2.30;;;;;;;;;;5035701;28;20009;-77
2023/09/02 10:24:51;;;;;;;1.90;1.80;;;;;;;;;;4999273;28;20109;-77
2023/09/02 10:27:22;;;;;;;1.95;1.70;;;;;;;;;;4999077;28;20052;-78
2023/09/02 10:29:55;;;;;;;1.77;1.67;;;;;;;;;;5014960;28;20040;-78
2023/09/02 10:32:23;;;;;;;2.30;1.90;;;;;;;;;;4995830;28;20030;-79
2023/09/02 10:34:54;;;;;;;1.70;1.60;;;;;;;;;;4996480;28;20030;-77
2023/09/02 10:37:26;;;;;;;2.00;1.83;;;;;;;;;;4995992;28;20461;-78
2023/09/02 10:39:53;;;;;;;1.73;1.63;;;;;;;;;;4996273;28;20396;-78
2023/09/02 10:42:20;;;;;;;2.05;1.83;;;;;;;;;;4978252;28;20026;-77
2023/09/02 10:44:47;;;;;;;2.25;1.85;;;;;;;;;;5020104;28;20028;-76
2023/09/02 10:47:14;;;;;;;1.88;1.77;;;;;;;;;;4996142;28;20068;-76
2023/09/02 10:49:40;;;;;;;2.08;1.92;;;;;;;;;;5014913;28;20038;-79
2023/09/02 10:52:06;;;;;;;1.77;1.67;;;;;;;;;;5014839;28;20030;-78
2023/09/02 10:54:51;;;;;;;2.05;1.92;;;;;;;;;;5015789;28;20041;-78
2023/09/02 10:57:17;;;;;;;1.52;1.42;;;;;;;;;;5018845;28;20392;-76
2023/09/02 10:59:43;;;;;;;1.90;1.75;;;;;;;;;;5015494;28;20034;-78
2023/09/02 11:02:10;;;;;;;2.33;1.85;;;;;;;;;;5015819;28;20432;-78
2023/09/02 11:04:45;;;;;;;2.30;2.00;;;;;;;;;;4996416;28;20120;-78
2023/09/02 11:07:22;;;;;;;2.08;1.95;;;;;;;;;;5014514;28;20066;-78
2023/09/02 11:09:52;;;;;;;2.08;1.88;;;;;;;;;;4997346;28;20515;-78
2023/09/02 11:12:18;;;;;;;2.53;1.88;;;;;;;;;;5014288;28;20022;-77
2023/09/02 11:15:11;;;;;;;3.97;2.08;;;;;;;;;;5015251;28;20026;-78
2023/09/02 11:17:38;;;;;;;2.28;2.05;;;;;;;;;;5012590;28;20033;-78
2023/09/02 11:20:08;;;;;;;2.78;1.90;;;;;;;;;;4995653;28;20038;-76
2023/09/02 11:22:55;;;;;;;2.08;1.85;;;;;;;;;;5014555;28;20030;-78
2023/09/02 11:25:24;;;;;;;2.10;1.90;;;;;;;;;;5015300;28;20022;-77
2023/09/02 11:27:51;;;;;;;1.60;1.40;;;;;;;;;;5014516;28;20026;-78
2023/09/02 11:30:17;;;;;;;2.20;2.00;;;;;;;;;;4997165;28;20033;-76
2023/09/02 11:32:43;;;;;;;2.28;1.85;;;;;;;;;;5015255;28;20049;-79
2023/09/02 11:35:11;;;;;;;2.22;1.95;;;;;;;;;;5013925;28;20027;-78
2023/09/02 11:37:37;;;;;;;2.50;2.30;;;;;;;;;;5013462;28;20028;-79
2023/09/02 11:40:13;;;;;;;2.10;1.90;;;;;;;;;;5013799;28;20030;-77
2023/09/02 11:43:00;;;;;;;2.28;1.90;;;;;;;;;;5014255;28;20033;-78
2023/09/02 11:45:31;;;;;;;1.58;1.48;;;;;;;;;;5013793;28;20392;-77
2023/09/02 11:47:57;;;;;;;2.25;1.80;;;;;;;;;;4996825;28;20025;-76
2023/09/02 11:50:23;;;;;;;2.30;1.67;;;;;;;;;;5014828;28;20034;-76
2023/09/02 11:52:52;;;;;;;1.75;1.65;;;;;;;;;;5013460;28;20037;-78
2023/09/02 11:55:19;;;;;;;2.95;2.30;;;;;;;;;;5021794;28;20026;-78
2023/09/02 11:57:46;;;;;;;1.90;1.80;;;;;;;;;;5013445;28;20338;-78
2023/09/02 12:00:16;;;;;;;2.00;1.85;;;;;;;;;;5014533;28;20021;-78
2023/09/02 12:02:42;;;;;;;2.60;1.90;;;;;;;;;;5016093;28;20674;-76
2023/09/02 12:05:09;;;;;;;2.47;2.17;;;;;;;;;;5019101;28;20046;-78
2023/09/02 12:07:36;;;;;;;2.20;2.10;;;;;;;;;;5018420;28;20030;-79
2023/09/02 12:10:06;;;;;;;1.77;1.65;;;;;;;;;;5017817;28;20121;-77
2023/09/02 12:12:33;;;;;;;2.63;2.03;;;;;;;;;;5017971;28;20029;-78
2023/09/02 12:15:00;;;;;;;2.15;1.85;;;;;;;;;;5017069;28;20085;-77
2023/09/02 12:17:26;;;;;;;3.25;2.05;;;;;;;;;;5017236;28;20025;-80
2023/09/02 12:19:52;;;;;;;1.67;1.58;;;;;;;;;;5017764;28;20037;-79
2023/09/02 12:22:20;;;;;;;2.63;2.00;;;;;;;;;;5017561;28;20022;-78
2023/09/02 12:24:47;;;;;;;1.70;1.60;;;;;;;;;;5017205;28;20104;-78
2023/09/02 12:27:19;;;;;;;2.60;2.00;;;;;;;;;;5000244;28;20049;-78
2023/09/02 12:29:56;;;;;;;3.10;2.00;;;;;;;;;;5017537;28;20068;-78
2023/09/02 12:32:22;;;;;;;2.75;1.70;;;;;;;;;;5002404;28;20080;-78
2023/09/02 12:34:48;;;;;;;3.80;1.75;;;;;;;;;;5003018;28;20026;-78
2023/09/02 12:37:16;;;;;;;1.90;1.75;;;;;;;;;;5018005;28;20037;-78
2023/09/02 12:39:42;;;;;;;1.60;1.50;;;;;;;;;;5020225;28;20022;-78
2023/09/02 12:42:15;;;;;;;1.92;1.70;;;;;;;;;;5001798;28;20026;-77
2023/09/02 12:44:48;;;;;;;1.52;1.42;;;;;;;;;;4999449;28;20034;-78
2023/09/02 12:47:18;;;;;;;3.25;2.28;;;;;;;;;;5017203;28;20018;-79
2023/09/02 12:49:44;;;;;;;1.80;1.55;;;;;;;;;;4999902;28;20297;-79
2023/09/02 12:52:17;;;;;;;1.98;1.88;;;;;;;;;;4999719;28;20420;-78
2023/09/02 12:54:52;;;;;;;1.90;1.80;;;;;;;;;;5025954;28;20022;-79
2023/09/02 12:57:18;;;;;;;1.50;1.40;;;;;;;;;;5023698;28;20070;-78
2023/09/02 12:59:44;;;;;;;1.77;1.67;;;;;;;;;;5025266;28;20026;-78
2023/09/02 13:02:10;;;;;;;2.65;1.77;;;;;;;;;;5022620;28;20025;-79
2023/09/02 13:04:36;;;;;;;2.22;1.90;;;;;;;;;;5017301;28;20022;-77
2023/09/02 13:07:03;;;;;;;1.77;1.63;;;;;;;;;;5016673;28;20026;-78
2023/09/02 13:09:30;;;;;;;2.45;1.58;;;;;;;;;;4999355;28;20045;-78
2023/09/02 13:11:56;;;;;;;4.32;2.17;;;;;;;;;;5017449;28;20025;-78
2023/09/02 13:14:23;;;;;;;1.77;1.60;;;;;;;;;;5003996;28;20466;-78
2023/09/02 13:16:49;;;;;;;1.52;1.42;;;;;;;;;;4998000;28;20126;-78
2023/09/02 13:19:15;;;;;;;1.52;1.42;;;;;;;;;;4997799;28;20133;-77
2023/09/02 13:21:41;;;;;;;1.80;1.70;;;;;;;;;;4997490;28;20015;-79
2023/09/02 13:24:07;;;;;;;2.85;2.00;;;;;;;;;;4985532;28;20052;-78
2023/09/02 13:26:33;;;;;;;2.33;2.10;;;;;;;;;;4999745;28;20040;-77
2023/09/02 13:29:04;;;;;;;1.80;1.70;;;;;;;;;;5013547;28;20236;-79
2023/09/02 13:31:30;;;;;;;2.47;1.73;;;;;;;;;;4996836;28;20373;-78
2023/09/02 13:33:56;;;;;;;2.05;1.50;;;;;;;;;;4979487;28;20057;-78
2023/09/02 13:36:22;;;;;;;1.63;1.52;;;;;;;;;;4980179;28;20027;-79
2023/09/02 13:38:49;;;;;;;3.85;1.90;;;;;;;;;;4979472;28;20026;-78
2023/09/02 13:41:15;;;;;;;1.45;1.35;;;;;;;;;;4997749;28;20029;-79
2023/09/02 13:43:41;;;;;;;1.40;1.30;;;;;;;;;;5000821;28;20033;-78
2023/09/02 13:46:09;;;;;;;1.63;1.50;;;;;;;;;;5016629;28;20033;-78
2023/09/02 13:48:36;;;;;;;1.25;1.15;;;;;;;;;;5016764;28;20030;-77
2023/09/02 13:51:04;;;;;;;1.17;1.15;;;;;;;;;;4998609;28;20056;-77
2023/09/02 13:53:32;;;;;;;1.15;1.15;;;;;;;;;;5016199;28;20057;-76
2023/09/02 13:55:59;;;;;;;1.60;1.50;;;;;;;;;;5024324;28;20037;-78
2023/09/02 13:58:29;;;;;;;1.50;1.40;;;;;;;;;;5015999;28;20370;-77
2023/09/02 14:00:55;;;;;;;1.52;1.42;;;;;;;;;;4991398;28;20025;-79
2023/09/02 14:03:26;;;;;;;1.70;1.58;;;;;;;;;;5015834;28;20037;-78
2023/09/02 14:05:52;;;;;;;1.42;1.33;;;;;;;;;;4998888;28;20026;-78
2023/09/02 14:08:19;;;;;;;1.63;1.52;;;;;;;;;;4999115;28;20022;-77
2023/09/02 14:10:46;;;;;;;1.70;1.60;;;;;;;;;;5016598;28;20022;-78
2023/09/02 14:13:13;;;;;;;1.55;1.45;;;;;;;;;;5016264;28;20041;-78
2023/09/02 14:15:39;;;;;;;1.30;1.23;;;;;;;;;;5015681;28;20050;-77
2023/09/02 14:18:05;;;;;;;1.08;1.08;;;;;;;;;;4998890;28;20027;-78
2023/09/02 14:20:32;;;;;;;1.40;1.30;;;;;;;;;;4996464;28;20105;-78
2023/09/02 14:22:58;;;;;;;1.63;1.52;;;;;;;;;;4999984;28;20026;-78
2023/09/02 14:25:24;;;;;;;3.08;1.70;;;;;;;;;;5031178;28;20036;-79
2023/09/02 14:27:50;;;;;;;1.65;1.40;;;;;;;;;;5037218;28;20089;-79
2023/09/02 14:30:16;;;;;;;1.73;1.50;;;;;;;;;;5017493;28;20408;-78
2023/09/02 14:32:42;;;;;;;1.50;1.40;;;;;;;;;;5033736;28;20030;-79
2023/09/02 14:35:09;;;;;;;1.88;1.70;;;;;;;;;;5012510;28;20089;-78
2023/09/02 14:37:35;;;;;;;2.50;1.15;;;;;;;;;;5031563;28;20052;-79
2023/09/02 14:40:01;;;;;;;1.45;1.35;;;;;;;;;;4998224;28;20018;-78
2023/09/02 14:42:27;;;;;;;1.42;1.35;;;;;;;;;;5014007;28;20029;-77
2023/09/02 14:44:57;;;;;;;2.03;1.42;;;;;;;;;;5014976;28;20049;-78